Time;durP1;ratioP1;P1;durP2;ratioP2;P2;SDS_P1;SDS_P2;PMS_P1;PMS_P2;Temp;Humidity;BMP_temperature;BMP_pressure;BME280_temperature;BME280_humidity;BME280_pressure;Samples;Min_cycle;Max_cycle;Signal;HPM_P1;HPM_P2
2024/01/09 00:01:56;;;;;;;18.02;12.50;;;-2.60;1.00;;;-4.56;100.00;101691.16;4955246;28;20083;-81
2024/01/09 00:04:23;;;;;;;23.98;14.63;;;-0.90;1.00;;;-4.36;100.00;101718.03;4941808;28;20700;-81
2024/01/09 00:06:50;;;;;;;20.85;13.05;;;-2.90;1.00;;;-5.27;100.00;101578.34;4944109;28;20100;-80
2024/01/09 00:09:17;;;;;;;19.33;11.85;;;-3.80;1.00;;;-4.46;100.00;101684.88;4956505;28;20441;-80
2024/01/09 00:11:44;;;;;;;23.92;12.35;;;-2.60;1.00;;;-4.56;99.75;101697.19;4971645;28;20541;-79
2024/01/09 00:14:12;;;;;;;21.23;14.02;;;-2.20;1.00;;;-4.63;100.00;101669.38;4963515;28;20050;-80
2024/01/09 00:16:39;;;;;;;18.50;12.38;;;-1.20;1.00;;;-5.08;100.00;101630.78;4932284;28;20054;-80
2024/01/09 00:19:06;;;;;;;19.48;12.20;;;-1.00;1.00;;;-5.38;100.00;101571.69;4963707;28;20047;-81
2024/01/09 00:21:33;;;;;;;23.85;13.88;;;-1.60;1.00;;;-5.02;100.00;101648.22;4954535;28;20047;-80
2024/01/09 00:24:00;;;;;;;22.20;13.52;;;-3.60;1.00;;;-4.59;100.00;101694.47;4970210;28;20065;-80
2024/01/09 00:26:28;;;;;;;20.45;12.68;;;-2.40;1.00;;;-4.67;100.00;101682.81;4936690;28;20050;-79
2024/01/09 00:28:55;;;;;;;20.98;13.80;;;-2.50;1.00;;;-4.66;100.00;101681.16;4960472;28;20051;-79
2024/01/09 00:31:22;;;;;;;20.88;12.10;;;-2.60;1.00;;;-4.54;100.00;101696.41;4960287;28;20067;-80
2024/01/09 00:33:50;;;;;;;17.98;12.18;;;-2.30;1.00;;;-4.64;100.00;101675.28;4945775;28;20074;-79
2024/01/09 00:36:17;;;;;;;17.85;11.93;;;-2.00;1.00;;;-4.51;100.00;101701.72;4962425;28;20050;-80
2024/01/09 00:38:44;;;;;;;18.70;12.73;;;-2.50;1.00;;;-4.49;100.00;101698.44;4955958;28;20142;-79
2024/01/09 00:41:11;;;;;;;20.90;12.43;;;-2.90;1.00;;;-5.24;100.00;101574.19;4971172;28;20055;-79
2024/01/09 00:43:39;;;;;;;18.20;12.32;;;-2.20;1.00;;;-4.67;99.99;101682.81;4950949;28;20141;-80
2024/01/09 00:46:06;;;;;;;19.38;13.32;;;-2.80;1.00;;;-4.74;100.00;101660.16;4958979;28;20565;-79
2024/01/09 00:48:34;;;;;;;20.80;12.55;;;-2.90;1.00;;;-4.48;100.00;101710.50;4954310;28;20062;-79
2024/01/09 00:51:02;;;;;;;22.50;13.30;;;-2.50;1.00;;;-4.63;100.00;101692.47;4949751;29;20123;-78
2024/01/09 00:53:29;;;;;;;23.60;13.23;;;-1.90;1.00;;;-4.70;100.00;101683.53;4965270;28;20460;-79
2024/01/09 00:55:56;;;;;;;17.27;11.82;;;-0.70;1.00;;;-4.96;100.00;101650.28;4965543;28;20074;-80
2024/01/09 00:58:23;;;;;;;19.17;13.35;;;-2.70;1.00;;;-4.57;100.00;101720.22;4960451;28;20144;-80
2024/01/09 01:00:50;;;;;;;22.95;12.93;;;-1.40;1.00;;;-4.70;99.93;101708.34;4963366;28;20046;-78
2024/01/09 01:03:18;;;;;;;22.33;12.43;;;-2.80;1.00;;;-4.68;100.00;101701.59;4957752;28;20169;-78
2024/01/09 01:05:46;;;;;;;19.15;12.70;;;-2.40;1.00;;;-4.59;99.94;101727.84;4961991;28;20481;-78
2024/01/09 01:08:13;;;;;;;17.85;12.77;;;-3.00;1.00;;;-4.67;99.50;101721.34;4937401;28;20053;-78
2024/01/09 01:10:40;;;;;;;19.98;13.18;;;-3.50;1.00;;;-5.38;100.00;101601.59;4963054;28;20049;-78
2024/01/09 01:13:07;;;;;;;17.13;12.27;;;-3.00;1.00;;;-4.65;100.00;101726.59;4963298;28;20051;-79
2024/01/09 01:15:36;;;;;;;18.20;11.95;;;-1.70;1.00;;;-4.60;100.00;101736.34;4974581;28;20046;-78
2024/01/09 01:18:03;;;;;;;19.92;11.73;;;-1.80;1.00;;;-4.67;100.00;101718.78;4950286;28;20048;-78
2024/01/09 01:20:30;;;;;;;19.88;11.23;;;-2.40;1.00;;;-4.65;100.00;101708.63;4982448;28;20110;-78
2024/01/09 01:22:57;;;;;;;18.52;12.18;;;-2.60;1.00;;;-4.70;99.15;101713.47;4951287;28;20046;-78
2024/01/09 01:25:24;;;;;;;19.77;12.18;;;-2.90;1.00;;;-4.89;98.34;101696.06;4950696;28;20121;-80
2024/01/09 01:27:51;;;;;;;20.52;12.10;;;-2.30;1.00;;;-4.86;98.60;101709.09;4937780;28;20053;-79
2024/01/09 01:30:18;;;;;;;17.98;11.35;;;-1.30;1.00;;;-4.82;97.96;101690.53;4937644;28;20051;-78
2024/01/09 01:32:45;;;;;;;22.33;13.48;;;-2.80;1.00;;;-4.83;99.46;101699.03;4951585;28;20035;-78
2024/01/09 01:35:13;;;;;;;20.85;12.30;;;-4.40;1.00;;;-5.03;98.46;101664.44;4947077;28;20055;-79
2024/01/09 01:37:40;;;;;;;18.40;12.18;;;-2.70;1.00;;;-4.86;98.42;101684.31;4953515;28;20097;-78
2024/01/09 01:40:07;;;;;;;20.08;12.80;;;-2.90;1.00;;;-4.91;98.11;101684.81;4931345;29;20660;-79
2024/01/09 01:42:34;;;;;;;22.77;11.82;;;-1.60;1.00;;;-4.68;98.30;101711.88;4950370;28;20051;-78
2024/01/09 01:45:02;;;;;;;21.83;13.05;;;-2.70;1.00;;;-4.61;98.28;101729.41;4950375;28;20134;-78
2024/01/09 01:47:29;;;;;;;19.50;12.10;;;-3.00;1.00;;;-4.65;97.66;101711.19;4952205;28;20577;-79
2024/01/09 01:49:57;;;;;;;17.65;11.27;;;-2.10;1.00;;;-4.71;98.52;101722.84;4952483;28;20157;-79
2024/01/09 01:52:24;;;;;;;18.60;11.55;;;-3.40;1.00;;;-4.75;97.47;101723.47;4963968;28;20051;-79
2024/01/09 01:54:51;;;;;;;17.67;11.25;;;-3.50;1.00;;;-4.81;98.16;101704.22;4964496;28;20667;-80
2024/01/09 01:57:18;;;;;;;17.48;11.43;;;-1.80;1.00;;;-4.98;98.18;101673.28;4942944;28;20787;-79
2024/01/09 01:59:46;;;;;;;19.52;12.93;;;-2.60;1.00;;;-4.93;97.22;101671.88;4926652;29;20114;-80
2024/01/09 02:02:14;;;;;;;19.30;11.77;;;-1.90;1.00;;;-4.88;97.15;101709.00;4979338;28;20054;-79
2024/01/09 02:04:43;;;;;;;21.48;12.85;;;-2.40;1.00;;;-4.54;96.15;101727.22;4934666;28;20047;-79
2024/01/09 02:07:10;;;;;;;22.58;12.38;;;-2.30;1.00;;;-5.01;95.01;101652.56;4962126;28;20055;-79
2024/01/09 02:09:40;;;;;;;21.65;13.10;;;-3.60;1.00;;;-4.73;94.26;101710.72;4946688;28;20079;-79
2024/01/09 02:12:08;;;;;;;18.35;11.95;;;-2.60;1.00;;;-4.73;94.67;101706.47;4959403;28;20047;-79
2024/01/09 02:14:35;;;;;;;17.15;11.00;;;-3.90;1.00;;;-4.65;96.11;101716.31;4977206;28;20050;-80
2024/01/09 02:17:03;;;;;;;17.98;11.38;;;-1.90;1.00;;;-4.62;95.90;101719.94;4953577;28;20039;-79
2024/01/09 02:19:30;;;;;;;16.85;11.07;;;-2.00;1.00;;;-4.84;95.69;101689.50;4946849;28;20107;-79
2024/01/09 02:21:57;;;;;;;18.83;12.52;;;-2.60;1.00;;;-4.64;96.10;101710.38;4954853;28;20047;-79
2024/01/09 02:24:24;;;;;;;19.98;11.70;;;-2.90;1.00;;;-4.80;94.44;101683.78;4951794;28;20051;-79
2024/01/09 02:27:39;;;;;;;17.80;11.60;;;-2.60;1.00;;;-4.71;94.04;101704.88;4956776;28;20530;-79
2024/01/09 02:30:10;;;;;;;15.95;10.35;;;-2.60;1.00;;;-4.94;94.31;101664.97;4948448;28;20062;-79
2024/01/09 02:32:38;;;;;;;16.42;10.40;;;-2.30;99.90;;;-4.66;94.14;101702.56;4943605;28;20132;-78
2024/01/09 02:35:05;;;;;;;22.25;12.60;;;-0.70;99.90;;;-4.58;95.39;101714.22;4951876;28;20054;-78
2024/01/09 02:37:34;;;;;;;17.73;11.00;;;-2.80;1.00;;;-4.70;95.81;101685.22;4952104;28;20078;-78
2024/01/09 02:40:02;;;;;;;19.88;12.00;;;-2.70;1.00;;;-4.78;94.07;101686.44;4952148;28;20051;-78
2024/01/09 02:42:32;;;;;;;15.73;11.07;;;-2.00;99.90;;;-4.81;95.97;101679.44;4968405;28;20042;-80
2024/01/09 02:45:02;;;;;;;16.38;11.38;;;-2.30;1.00;;;-4.69;94.85;101687.00;4947046;28;20051;-78
2024/01/09 02:47:29;;;;;;;19.60;13.45;;;-2.40;1.00;;;-4.90;93.64;101661.81;4965436;28;20070;-78
2024/01/09 02:49:57;;;;;;;17.55;11.65;;;-3.40;99.90;;;-4.78;93.24;101678.72;4952096;28;20078;-77
2024/01/09 02:52:24;;;;;;;21.95;12.73;;;-2.30;1.00;;;-4.80;92.88;101675.19;4960712;28;20047;-78
2024/01/09 02:54:51;;;;;;;17.73;10.73;;;-1.70;99.90;;;-4.65;92.14;101694.06;4951455;28;20156;-78
2024/01/09 02:57:18;;;;;;;18.35;12.18;;;-2.60;99.90;;;-4.76;91.69;101677.13;4948126;28;20055;-79
2024/01/09 02:59:45;;;;;;;16.35;10.55;;;-3.00;99.90;;;-4.84;93.76;101666.41;4951748;28;20081;-79
2024/01/09 03:02:12;;;;;;;19.70;11.18;;;-2.80;99.90;;;-4.77;92.28;101677.94;4968742;28;20047;-78
2024/01/09 03:04:39;;;;;;;21.00;12.32;;;-1.00;99.90;;;-4.92;92.27;101670.22;4968097;28;20054;-80
2024/01/09 03:07:06;;;;;;;18.60;11.05;;;-2.50;99.90;;;-4.72;91.87;101686.81;4967593;28;20145;-79
2024/01/09 03:09:35;;;;;;;21.45;12.05;;;-3.80;99.90;;;-4.63;90.50;101701.88;4958518;28;20506;-79
2024/01/09 03:12:03;;;;;;;19.17;11.27;;;-2.00;99.90;;;-4.72;90.73;101690.25;4963918;28;20146;-79
2024/01/09 03:14:30;;;;;;;20.35;10.73;;;-2.60;99.90;;;-4.64;89.98;101707.81;4951041;28;20092;-79
2024/01/09 03:17:00;;;;;;;17.52;10.73;;;-3.20;99.90;;;-4.99;90.46;101656.13;4946726;28;20118;-79
2024/01/09 03:19:31;;;;;;;19.85;11.60;;;-2.80;99.90;;;-5.00;90.44;101641.50;4978173;28;20405;-78
2024/01/09 03:21:58;;;;;;;16.63;11.20;;;-2.60;99.90;;;-4.76;90.85;101684.84;4964499;28;20055;-79
2024/01/09 03:24:25;;;;;;;17.33;12.02;;;-3.00;99.90;;;-4.74;90.71;101690.97;4956027;28;20093;-79
2024/01/09 03:26:52;;;;;;;16.95;10.95;;;-2.80;99.90;;;-4.99;90.28;101640.72;4948783;28;20078;-77
2024/01/09 03:29:19;;;;;;;17.17;11.38;;;-2.30;99.90;;;-4.71;90.85;101704.00;4937097;28;20114;-78
2024/01/09 03:31:46;;;;;;;17.90;10.75;;;-2.00;99.90;;;-4.65;91.13;101701.78;4972926;28;20046;-78
2024/01/09 03:34:13;;;;;;;15.70;10.15;;;-2.50;99.90;;;-4.76;92.08;101684.84;4978861;28;20113;-79
2024/01/09 03:36:46;;;;;;;18.42;11.23;;;-2.10;99.90;;;-4.88;91.72;101667.91;4950458;28;20129;-78
2024/01/09 03:39:16;;;;;;;17.15;11.30;;;-3.10;99.90;;;-4.80;91.33;101690.59;4951566;28;20078;-79
2024/01/09 03:41:43;;;;;;;17.52;11.82;;;-4.40;99.90;;;-4.71;91.63;101712.56;4951677;28;20046;-79
2024/01/09 03:44:12;;;;;;;15.70;10.07;;;-2.50;99.90;;;-4.93;91.33;101665.88;4943460;28;20090;-80
2024/01/09 03:46:39;;;;;;;16.30;10.67;;;-3.20;99.90;;;-4.79;91.92;101693.25;4950424;28;20062;-79
2024/01/09 03:49:07;;;;;;;17.65;11.30;;;-3.70;99.90;;;-4.75;92.14;101696.91;4921070;29;20059;-79
2024/01/09 03:51:34;;;;;;;17.20;10.93;;;-2.30;99.90;;;-4.92;91.57;101676.22;4949892;28;20049;-78
2024/01/09 03:54:02;;;;;;;18.27;11.23;;;-3.00;99.90;;;-4.79;91.85;101695.84;4952779;28;20363;-79
2024/01/09 03:56:29;;;;;;;18.48;10.40;;;-2.80;99.90;;;-4.94;91.68;101675.22;4934994;28;20051;-78
2024/01/09 03:58:57;;;;;;;17.35;11.05;;;-1.30;99.90;;;-5.10;90.60;101645.22;4970447;28;20038;-80
2024/01/09 04:01:24;;;;;;;17.60;10.73;;;-2.60;99.90;;;-4.97;92.16;101669.06;4961154;28;20082;-80
2024/01/09 04:03:51;;;;;;;18.42;10.77;;;-1.50;99.90;;;-4.95;93.20;101676.03;4946614;28;20049;-80
2024/01/09 04:06:18;;;;;;;17.02;10.82;;;-3.20;99.90;;;-5.62;96.62;101586.47;4950457;28;20051;-84
2024/01/09 04:08:46;;;;;;;18.98;11.00;;;-2.70;1.00;;;-5.47;97.83;101594.19;4969843;28;20646;-81
2024/01/09 04:11:14;;;;;;;19.63;11.50;;;-2.50;99.90;;;-5.63;97.23;101574.44;4946950;28;20058;-78
2024/01/09 04:13:41;;;;;;;16.15;9.98;;;-2.70;99.90;;;-4.86;95.59;101671.47;4947895;28;20078;-79
2024/01/09 04:16:13;;;;;;;19.00;12.02;;;-2.30;99.90;;;-5.10;94.57;101646.88;4943688;28;20137;-79
2024/01/09 04:18:40;;;;;;;19.15;11.80;;;-4.10;99.90;;;-5.37;93.94;101588.84;4936562;28;20073;-79
2024/01/09 04:21:07;;;;;;;17.25;12.40;;;-2.90;99.90;;;-4.82;93.09;101676.78;4948487;28;20051;-79
2024/01/09 04:23:34;;;;;;;16.75;10.45;;;-2.40;99.90;;;-4.82;92.55;101692.19;4973027;28;20054;-79
2024/01/09 04:26:01;;;;;;;17.83;11.65;;;-1.90;99.90;;;-4.75;93.91;101684.06;4947090;28;20055;-79
2024/01/09 04:28:28;;;;;;;19.00;11.88;;;-1.50;99.90;;;-4.75;94.32;101679.81;4986915;28;20470;-79
2024/01/09 04:30:56;;;;;;;18.23;11.23;;;-3.50;99.90;;;-4.74;93.16;101689.28;4971604;28;20146;-80
2024/01/09 04:33:23;;;;;;;18.88;11.20;;;-2.80;99.90;;;-4.76;92.39;101688.31;4951879;28;20054;-78
2024/01/09 04:35:51;;;;;;;17.08;11.23;;;-2.30;99.90;;;-4.75;92.45;101700.34;4964925;28;20433;-79
2024/01/09 04:38:18;;;;;;;20.23;13.15;;;-2.50;99.90;;;-4.93;92.48;101684.72;4956084;28;20506;-79
2024/01/09 04:40:45;;;;;;;20.77;11.05;;;-2.40;99.90;;;-4.85;92.20;101692.88;4945880;28;20039;-79
2024/01/09 04:43:12;;;;;;;22.05;12.18;;;-2.50;99.90;;;-4.94;92.33;101680.38;4965883;28;20054;-79
2024/01/09 04:45:39;;;;;;;17.63;11.65;;;-2.00;99.90;;;-4.88;91.26;101692.69;4968809;28;20061;-78
2024/01/09 04:48:07;;;;;;;19.33;11.18;;;-3.40;99.90;;;-5.06;91.10;101667.69;4945006;28;20066;-78
2024/01/09 04:50:34;;;;;;;20.65;11.73;;;-3.20;99.90;;;-5.31;91.48;101631.94;4944461;28;20134;-78
2024/01/09 04:53:02;;;;;;;19.52;11.82;;;-1.50;99.90;;;-4.90;91.59;101708.03;4962880;28;20327;-80
2024/01/09 04:55:29;;;;;;;17.58;11.75;;;-3.70;99.90;;;-5.12;92.66;101699.00;4937192;28;20565;-78
2024/01/09 04:57:56;;;;;;;18.73;11.32;;;-3.70;99.90;;;-5.76;93.15;101570.25;4946739;28;20043;-78
2024/01/09 05:00:23;;;;;;;21.98;12.52;;;-2.20;99.90;;;-5.02;92.74;101707.28;4968730;28;20134;-77
2024/01/09 05:02:52;;;;;;;15.07;10.70;;;-1.40;1.00;;;-5.09;93.27;101671.75;4965375;28;20051;-77
2024/01/09 05:05:20;;;;;;;18.88;10.77;;;-2.70;99.90;;;-5.61;93.43;101581.44;4967179;28;20622;-77
2024/01/09 05:07:47;;;;;;;16.63;10.35;;;-3.50;99.90;;;-5.89;93.18;101531.03;4946413;28;20058;-78
2024/01/09 05:10:14;;;;;;;15.27;10.48;;;-2.10;1.00;;;-4.90;93.30;101695.19;4970808;28;20086;-78
2024/01/09 05:12:41;;;;;;;18.85;11.73;;;-3.60;99.90;;;-5.07;92.86;101686.44;4954240;28;20042;-77
2024/01/09 05:15:09;;;;;;;16.80;10.65;;;-2.50;99.90;;;-4.99;93.26;101695.53;4968924;28;20053;-77
2024/01/09 05:17:36;;;;;;;22.50;14.40;;;-3.70;99.90;;;-5.14;92.69;101681.75;4949435;28;20502;-78
2024/01/09 05:20:04;;;;;;;20.45;11.10;;;-3.90;99.90;;;-5.07;93.92;101690.69;4951082;28;20082;-79
2024/01/09 05:22:31;;;;;;;19.30;11.63;;;-3.90;1.00;;;-5.36;94.73;101641.06;4966532;28;20043;-77
2024/01/09 05:24:58;;;;;;;19.95;12.05;;;-2.70;99.90;;;-5.17;95.30;101673.84;4948898;28;20589;-78
2024/01/09 05:27:25;;;;;;;20.33;11.30;;;-4.00;99.90;;;-5.15;95.17;101670.59;4946116;28;20054;-77
2024/01/09 05:29:52;;;;;;;16.70;11.18;;;-3.50;99.90;;;-5.15;95.33;101673.16;4961819;28;20054;-78
2024/01/09 05:32:19;;;;;;;24.88;12.73;;;-2.90;99.90;;;-5.01;94.77;101694.50;4953832;28;20103;-78
2024/01/09 05:34:46;;;;;;;21.52;11.65;;;-1.70;99.90;;;-5.00;94.17;101698.84;4966028;28;20046;-80
2024/01/09 05:37:13;;;;;;;19.30;12.02;;;-1.90;99.90;;;-5.14;94.35;101680.06;4970200;28;20105;-81
2024/01/09 05:39:46;;;;;;;16.85;11.52;;;-3.10;99.90;;;-5.07;94.24;101683.88;4949139;28;20038;-81
2024/01/09 05:42:13;;;;;;;18.83;10.82;;;-4.20;99.90;;;-5.57;93.57;101605.56;4923937;28;20093;-80
2024/01/09 05:44:40;;;;;;;18.88;12.23;;;-3.30;1.00;;;-5.02;93.72;101700.44;4968177;28;20142;-80
2024/01/09 05:47:07;;;;;;;17.20;11.07;;;-3.60;99.90;;;-5.21;94.00;101666.75;4970201;28;20391;-79
2024/01/09 05:49:34;;;;;;;19.77;12.50;;;-2.50;99.90;;;-5.40;94.18;101650.25;4951531;28;20062;-80
2024/01/09 05:52:01;;;;;;;17.58;11.80;;;-2.30;99.90;;;-5.19;94.15;101678.00;4986700;28;20078;-80
2024/01/09 05:54:28;;;;;;;18.42;10.50;;;-4.10;99.90;;;-5.27;93.54;101665.59;4896844;28;20066;-78
2024/01/09 05:56:56;;;;;;;19.85;10.77;;;-2.60;99.90;;;-5.27;93.25;101663.03;4934071;28;20194;-80
2024/01/09 05:59:23;;;;;;;18.58;10.50;;;-3.60;99.90;;;-5.12;93.97;101688.72;4931652;28;20134;-79
2024/01/09 06:01:50;;;;;;;17.55;10.48;;;-2.10;99.90;;;-5.07;93.95;101700.94;4965590;28;20059;-81
2024/01/09 06:04:17;;;;;;;17.73;10.18;;;-2.20;99.90;;;-5.31;94.14;101663.66;4957961;28;20046;-77
2024/01/09 06:06:44;;;;;;;23.17;13.85;;;-3.20;99.90;;;-5.05;95.35;101705.41;4968332;28;20134;-80
2024/01/09 06:09:12;;;;;;;20.08;11.85;;;-2.70;1.00;;;-5.35;95.47;101665.91;4964710;28;20981;-79
2024/01/09 06:11:39;;;;;;;17.67;12.30;;;-2.20;99.90;;;-5.21;94.80;101669.31;4953045;28;20053;-78
2024/01/09 06:14:06;;;;;;;20.33;10.55;;;-2.50;99.90;;;-5.20;93.73;101686.50;4960612;28;20148;-79
2024/01/09 06:16:33;;;;;;;17.25;10.27;;;-0.30;99.90;;;-5.18;93.89;101683.25;4945682;28;20175;-80
2024/01/09 06:19:00;;;;;;;22.40;11.48;;;-2.10;99.90;;;-5.02;93.14;101710.72;4954049;28;20043;-79
2024/01/09 06:21:28;;;;;;;18.63;11.82;;;-4.20;99.90;;;-5.13;93.00;101683.53;4954620;28;20685;-81
2024/01/09 06:23:55;;;;;;;17.83;11.40;;;-3.30;99.90;;;-5.11;93.71;101699.91;4957314;28;20078;-79
2024/01/09 06:26:22;;;;;;;22.75;11.65;;;-4.10;99.90;;;-5.37;93.05;101659.81;4956251;28;20157;-79
2024/01/09 06:28:49;;;;;;;20.95;11.02;;;-3.40;99.90;;;-5.27;92.84;101692.91;4954952;28;20051;-80
2024/01/09 06:31:16;;;;;;;18.63;10.13;;;-2.50;99.90;;;-5.18;93.27;101705.44;4971367;28;20069;-79
2024/01/09 06:33:43;;;;;;;20.83;11.30;;;-3.40;99.90;;;-5.53;93.36;101629.75;4955810;28;20077;-80
2024/01/09 06:36:10;;;;;;;16.30;10.23;;;-2.30;99.90;;;-5.59;94.56;101633.72;4970237;28;20070;-79
2024/01/09 06:38:37;;;;;;;20.02;10.68;;;-4.10;1.00;;;-5.25;94.11;101678.50;4973450;28;20054;-79
2024/01/09 06:41:04;;;;;;;17.20;11.02;;;-3.10;99.90;;;-5.11;92.84;101705.03;4943296;28;20039;-80
2024/01/09 06:43:31;;;;;;;20.73;10.60;;;-2.60;99.90;;;-5.10;93.83;101698.19;4954837;28;20129;-79
2024/01/09 06:45:58;;;;;;;18.67;10.63;;;-3.30;99.90;;;-5.10;92.86;101703.34;4948877;28;20047;-79
2024/01/09 06:48:25;;;;;;;19.70;13.23;;;-4.10;99.90;;;-5.56;92.78;101633.00;4956410;28;20094;-79
2024/01/09 06:50:53;;;;;;;19.67;11.18;;;-1.80;99.90;;;-5.29;91.21;101684.25;4933309;29;20374;-79
2024/01/09 06:53:20;;;;;;;21.88;12.35;;;-3.50;99.90;;;-5.34;91.22;101675.38;4961405;28;20444;-79
2024/01/09 06:55:47;;;;;;;18.52;11.68;;;-4.70;99.90;;;-5.33;90.91;101688.28;4955509;28;20043;-79
2024/01/09 06:58:16;;;;;;;19.85;11.27;;;-3.30;99.90;;;-5.39;92.13;101676.75;4968008;28;20049;-79
2024/01/09 07:00:44;;;;;;;19.23;11.53;;;-2.30;99.90;;;-5.28;91.75;101691.16;4944165;28;20050;-79
2024/01/09 07:03:11;;;;;;;18.25;11.38;;;-4.00;99.90;;;-5.28;91.82;101693.72;4937371;28;20419;-78
2024/01/09 07:05:38;;;;;;;15.98;10.38;;;-3.10;99.90;;;-5.80;91.58;101617.88;4948365;28;20058;-79
2024/01/09 07:08:06;;;;;;;16.63;10.75;;;-3.40;99.90;;;-5.33;92.05;101690.00;4957107;28;20057;-79
2024/01/09 07:10:34;;;;;;;17.25;10.45;;;-3.60;99.90;;;-5.42;92.72;101680.03;4950766;28;20137;-79
2024/01/09 07:13:01;;;;;;;19.42;10.18;;;-2.60;99.90;;;-5.33;92.23;101687.41;4941651;28;20493;-78
2024/01/09 07:15:28;;;;;;;19.15;12.07;;;-2.50;99.90;;;-5.34;92.06;101691.66;4948103;28;20358;-79
2024/01/09 07:17:55;;;;;;;16.40;10.38;;;-3.90;99.90;;;-5.10;93.05;101714.50;4945462;28;20050;-78
2024/01/09 07:20:23;;;;;;;19.48;11.75;;;-2.70;99.90;;;-5.34;91.89;101683.09;4935697;28;20062;-78
2024/01/09 07:22:50;;;;;;;18.40;10.57;;;-3.30;99.90;;;-5.20;91.70;101717.28;4951452;28;20047;-79
2024/01/09 07:25:31;;;;;;;19.05;9.95;;;-2.30;99.90;;;-5.28;91.98;101697.19;4949980;28;20414;-78
2024/01/09 07:27:58;;;;;;;16.25;11.15;;;-2.70;99.90;;;-5.25;92.58;101703.28;4929487;28;20054;-79
2024/01/09 07:30:25;;;;;;;20.17;11.63;;;-2.50;99.90;;;-5.30;91.22;101690.16;4966615;28;20059;-79
2024/01/09 07:32:52;;;;;;;20.80;12.32;;;-3.70;99.90;;;-5.46;91.43;101673.81;4952114;28;20039;-78
2024/01/09 07:35:20;;;;;;;17.65;9.55;;;-2.50;99.90;;;-5.21;92.22;101705.25;4943093;28;20047;-79
2024/01/09 07:37:47;;;;;;;20.23;11.77;;;-2.80;99.90;;;-5.14;92.37;101712.56;4943507;28;20047;-78
2024/01/09 07:40:14;;;;;;;20.38;11.30;;;-3.20;99.90;;;-5.36;92.17;101682.09;4951155;28;20075;-79
2024/01/09 07:42:41;;;;;;;19.85;10.93;;;-3.00;99.90;;;-5.11;90.79;101730.69;4950454;28;20477;-79
2024/01/09 07:45:23;;;;;;;18.77;12.55;;;-5.20;99.90;;;-5.22;90.92;101714.66;4982541;28;20050;-80
2024/01/09 07:47:50;;;;;;;19.80;11.98;;;-3.20;99.90;;;-5.21;90.99;101715.50;4966737;28;20089;-79
2024/01/09 07:50:17;;;;;;;22.42;12.38;;;-1.30;99.90;;;-5.28;90.09;101715.16;4948017;28;20102;-79
2024/01/09 07:52:44;;;;;;;21.00;11.55;;;-1.50;99.90;;;-5.56;89.74;101674.03;4962691;28;20141;-79
2024/01/09 07:55:12;;;;;;;19.73;10.75;;;-4.10;99.90;;;-5.29;89.67;101705.69;4954856;28;20066;-79
2024/01/09 07:57:38;;;;;;;19.02;10.77;;;-3.70;99.90;;;-5.12;89.80;101729.81;4935906;28;20049;-79
2024/01/09 08:00:07;;;;;;;20.17;11.50;;;-3.70;99.90;;;-5.36;88.54;101693.25;4935552;28;20074;-79
2024/01/09 08:02:39;;;;;;;19.50;11.40;;;-3.30;99.90;;;-5.18;88.86;101721.72;4953635;28;20443;-79
2024/01/09 08:05:07;;;;;;;21.70;12.60;;;-2.30;99.90;;;-5.12;89.53;101734.06;4960501;28;20070;-79
2024/01/09 08:07:34;;;;;;;16.63;10.98;;;-1.90;99.90;;;-5.02;90.09;101746.66;4961424;28;20050;-79
2024/01/09 08:10:02;;;;;;;17.10;10.88;;;-3.80;99.90;;;-5.09;89.72;101723.06;4947157;28;20470;-79
2024/01/09 08:12:29;;;;;;;17.05;10.18;;;-3.80;99.90;;;-5.02;89.72;101731.25;4938807;28;20047;-79
2024/01/09 08:14:56;;;;;;;19.90;11.00;;;-3.50;99.90;;;-5.05;88.69;101731.06;4950257;28;20071;-79
2024/01/09 08:17:23;;;;;;;18.33;12.10;;;-2.90;99.90;;;-4.97;88.79;101739.25;4951497;28;20055;-78
2024/01/09 08:19:50;;;;;;;16.58;11.02;;;-2.50;99.90;;;-5.22;88.26;101704.38;4959920;28;20043;-79
2024/01/09 08:22:18;;;;;;;20.27;12.15;;;-3.20;99.90;;;-4.99;88.34;101731.47;4984615;28;20039;-78
2024/01/09 08:24:45;;;;;;;17.90;11.02;;;-2.60;99.90;;;-5.16;86.68;101701.28;4972062;28;20458;-79
2024/01/09 08:27:12;;;;;;;21.02;11.00;;;-2.60;99.90;;;-5.00;86.78;101716.81;4947920;28;20066;-79
2024/01/09 08:29:39;;;;;;;19.63;11.65;;;-4.00;99.90;;;-4.87;86.34;101735.56;4953855;28;20866;-79
2024/01/09 08:32:06;;;;;;;17.73;11.02;;;-3.30;99.90;;;-4.82;85.74;101741.88;4951273;28;20410;-80
2024/01/09 08:34:33;;;;;;;19.88;11.15;;;-2.00;99.90;;;-5.00;85.12;101704.00;4962375;28;20058;-79
2024/01/09 08:37:00;;;;;;;18.27;11.02;;;-3.80;99.90;;;-4.97;86.39;101717.84;4981714;28;20069;-79
2024/01/09 08:39:27;;;;;;;19.15;11.65;;;-3.20;99.90;;;-4.79;86.36;101747.19;4947874;28;20053;-79
2024/01/09 08:41:54;;;;;;;19.60;12.82;;;-2.80;99.90;;;-4.92;85.07;101724.13;4951750;28;20418;-79
2024/01/09 08:44:23;;;;;;;15.98;10.40;;;-2.80;99.90;;;-5.04;84.95;101698.59;4952416;28;20545;-79
2024/01/09 08:46:50;;;;;;;17.33;9.98;;;-3.40;99.90;;;-4.80;85.40;101735.16;4948302;28;20420;-79
2024/01/09 08:49:17;;;;;;;21.52;12.43;;;-1.30;99.90;;;-4.67;85.64;101752.19;4971525;28;20059;-79
2024/01/09 08:51:44;;;;;;;15.98;9.75;;;-1.30;99.90;;;-4.99;84.34;101679.22;4955380;28;20058;-81
2024/01/09 08:54:11;;;;;;;17.42;11.45;;;-2.60;99.90;;;-4.90;83.22;101689.16;4946933;28;20055;-79
2024/01/09 08:56:39;;;;;;;19.45;10.98;;;-2.70;99.90;;;-4.80;86.38;101686.34;4970386;28;20070;-82
2024/01/09 08:59:07;;;;;;;16.70;9.80;;;-2.30;99.90;;;-4.70;86.15;101716.03;4959786;28;20042;-83
2024/01/09 09:01:37;;;;;;;15.57;10.75;;;-3.10;99.90;;;-4.60;84.48;101695.25;4971215;28;20055;-81
2024/01/09 09:04:05;;;;;;;18.95;10.88;;;-0.90;99.90;;;-4.42;79.44;101725.41;4957786;28;20154;-81
2024/01/09 09:06:32;;;;;;;17.65;11.35;;;-2.40;99.90;;;-4.76;79.31;101679.69;4957301;28;20159;-82
2024/01/09 09:08:59;;;;;;;18.65;11.80;;;-1.40;99.90;;;-4.42;79.84;101739.13;4964396;28;20047;-83
2024/01/09 09:11:26;;;;;;;17.67;10.52;;;-2.70;99.90;;;-4.94;80.60;101652.13;4974683;28;20039;-81
2024/01/09 09:13:54;;;;;;;21.05;11.75;;;-3.10;99.90;;;-5.14;79.87;101590.22;4960936;28;20066;-81
2024/01/09 09:16:22;;;;;;;18.15;10.73;;;-2.70;99.90;;;-5.04;77.61;101598.50;4968807;28;20055;-81
2024/01/09 09:18:49;;;;;;;19.50;10.80;;;-2.50;99.90;;;-4.96;75.14;101634.88;4972472;28;20057;-81
2024/01/09 09:21:17;;;;;;;18.45;10.40;;;-1.30;99.90;;;-5.02;75.53;101613.16;4980224;28;20110;-80
2024/01/09 09:23:45;;;;;;;16.70;10.43;;;-1.30;99.90;;;-4.86;76.30;101629.47;4970232;28;20163;-81
2024/01/09 09:26:12;;;;;;;18.30;10.43;;;-4.10;99.90;;;-4.54;76.44;101684.44;4965503;28;20170;-80
2024/01/09 09:28:42;;;;;;;17.58;11.50;;;-2.80;99.90;;;-4.23;75.00;101736.75;4971637;28;20391;-81
2024/01/09 09:31:28;;;;;;;17.17;10.53;;;-2.40;99.90;;;-4.75;75.47;101650.69;4953160;28;20597;-82
2024/01/09 09:33:56;;;;;;;18.65;10.77;;;-2.30;99.90;;;-4.86;75.84;101625.25;4959189;28;20077;-81
2024/01/09 09:36:24;;;;;;;18.30;9.75;;;-2.30;99.90;;;-4.59;73.77;101684.19;4953195;28;20054;-81
2024/01/09 09:38:55;;;;;;;21.20;11.82;;;-2.30;99.90;;;-4.82;75.20;101612.59;4958703;28;20054;-80
2024/01/09 09:41:23;;;;;;;20.13;11.93;;;-2.20;99.90;;;-4.22;75.25;101710.25;4942852;28;20138;-82
2024/01/09 09:43:58;;;;;;;18.70;11.48;;;-0.40;99.90;;;-5.01;75.32;101588.41;4950870;28;20047;-81
2024/01/09 09:46:31;;;;;;;18.23;11.32;;;-1.20;99.90;;;-4.07;74.45;101729.13;4973455;28;20083;-81
2024/01/09 09:48:59;;;;;;;18.00;10.73;;;-2.10;99.90;;;-4.04;73.14;101718.16;4981830;28;20051;-81
2024/01/09 09:51:26;;;;;;;16.48;9.68;;;-2.00;99.90;;;-4.24;72.76;101715.28;4965387;28;20050;-82
2024/01/09 09:53:55;;;;;;;19.42;12.00;;;-0.90;99.90;;;-4.23;72.34;101700.75;4985791;28;20046;-82
2024/01/09 09:56:24;;;;;;;24.00;12.73;;;-1.30;99.90;;;-4.07;72.30;101687.09;4947170;28;20057;-81
2024/01/09 09:58:51;;;;;;;23.13;11.13;;;-2.00;99.90;;;-3.85;71.65;101722.63;4942989;28;20062;-82
2024/01/09 10:01:22;;;;;;;19.25;10.63;;;-2.20;99.90;;;-4.29;69.38;101653.38;4947547;28;20458;-81
2024/01/09 10:03:56;;;;;;;20.23;11.73;;;-2.00;99.90;;;-4.71;69.90;101589.28;4975946;28;20046;-83